createdAt,value
2023-11-30T00:12:47.515Z,159.80
2023-11-30T00:16:32.668Z,168.20
2023-11-30T00:20:23.934Z,170.50
2023-11-30T00:24:26.516Z,150.30
2023-11-30T00:28:28.850Z,146.60
2023-11-30T00:35:53.335Z,153.40
2023-11-30T00:39:55.679Z,147.00
2023-11-30T00:43:38.873Z,161.00
2023-11-30T00:47:14.310Z,147.80
2023-11-30T00:54:58.899Z,112.00
2023-11-30T00:59:00.737Z,118.60
2023-11-30T01:03:03.336Z,91.10
2023-11-30T01:07:05.817Z,79.80
2023-11-30T01:10:51.454Z,95.20
2023-11-30T01:14:46.202Z,89.60
2023-11-30T01:18:28.863Z,91.40
2023-11-30T01:22:20.299Z,74.80
2023-11-30T01:25:52.947Z,72.10
2023-11-30T01:29:55.410Z,55.90
2023-11-30T01:33:57.827Z,49.80
2023-11-30T01:37:38.949Z,44.40
2023-11-30T01:41:10.171Z,39.20
2023-11-30T01:44:52.578Z,39.00
2023-11-30T01:48:45.023Z,67.10
2023-11-30T01:52:10.794Z,72.20
2023-11-30T01:55:15.917Z,83.20
2023-11-30T01:59:01.345Z,82.80
2023-11-30T02:02:36.468Z,88.40
2023-11-30T02:06:07.245Z,88.60
2023-11-30T02:09:49.580Z,97.70
2023-11-30T02:13:35.746Z,113.70
2023-11-30T02:17:07.657Z,120.00
2023-11-30T02:20:50.024Z,131.10
2023-11-30T02:28:15.740Z,125.60
2023-11-30T02:32:01.019Z,140.00
2023-11-30T02:35:43.558Z,136.70
2023-11-30T02:39:45.974Z,148.40
2023-11-30T02:43:38.202Z,136.20
2023-11-30T02:47:20.581Z,137.80
2023-11-30T02:50:43.090Z,132.50
2023-11-30T02:54:28.949Z,148.90
2023-11-30T02:57:58.918Z,131.70
2023-11-30T03:01:42.519Z,137.50
2023-11-30T03:05:05.262Z,154.30
2023-11-30T03:09:07.861Z,124.30
2023-11-30T03:16:45.322Z,91.90
2023-11-30T03:20:47.962Z,121.50
2023-11-30T03:28:32.499Z,123.70
2023-11-30T03:32:14.844Z,106.30
2023-11-30T03:36:17.254Z,106.10
2023-11-30T03:39:59.695Z,108.60
2023-11-30T03:44:00.823Z,95.70
2023-11-30T03:47:43.213Z,92.00
2023-11-30T03:50:53.416Z,80.10
2023-11-30T03:54:56.707Z,61.90
2023-11-30T03:58:38.845Z,48.30
2023-11-30T04:02:33.665Z,36.90
2023-11-30T04:05:59.169Z,36.90
2023-11-30T04:10:01.635Z,37.80
2023-11-30T04:17:26.104Z,35.60
2023-11-30T04:20:46.876Z,39.50
2023-11-30T04:24:32.100Z,40.80
2023-11-30T04:27:57.115Z,32.80
2023-11-30T04:31:09.282Z,33.50
2023-11-30T04:34:31.702Z,33.90
2023-11-30T04:37:39.457Z,31.60
2023-11-30T04:41:04.256Z,31.80
2023-11-30T04:44:46.388Z,29.90
2023-11-30T04:48:11.519Z,29.70
2023-11-30T04:51:34.296Z,28.90
2023-11-30T04:55:07.169Z,28.90
2023-11-30T04:58:14.978Z,29.00
2023-11-30T05:01:28.157Z,28.30
2023-11-30T05:04:32.459Z,28.40
2023-11-30T05:07:37.281Z,28.30
2023-11-30T05:10:59.745Z,30.50
2023-11-30T05:14:04.057Z,29.60
2023-11-30T05:17:08.519Z,29.10
2023-11-30T05:20:16.230Z,27.90
2023-11-30T05:23:18.470Z,29.30
2023-11-30T05:26:23.544Z,29.40
2023-11-30T05:29:25.427Z,30.50
2023-11-30T05:32:48.047Z,31.80
2023-11-30T05:35:53.057Z,30.00
2023-11-30T05:38:55.074Z,32.70
2023-11-30T05:42:00.245Z,27.10
2023-11-30T05:45:09.362Z,30.30
2023-11-30T05:48:14.116Z,28.20
2023-11-30T05:51:19.775Z,27.50
2023-11-30T05:54:22.170Z,27.70
2023-11-30T05:57:30.067Z,33.70
2023-11-30T06:00:34.733Z,30.80
2023-11-30T06:03:36.914Z,30.40
2023-11-30T06:06:39.044Z,28.90
2023-11-30T06:09:41.056Z,26.50
2023-11-30T06:12:43.121Z,26.70
2023-11-30T06:15:45.355Z,27.00
2023-11-30T06:18:50.483Z,26.30
2023-11-30T06:21:55.356Z,25.40
2023-11-30T06:24:57.845Z,27.10
2023-11-30T06:28:17.791Z,27.90
2023-11-30T06:31:25.122Z,26.50
2023-11-30T06:34:30.661Z,26.20
2023-11-30T06:37:52.781Z,25.50
2023-11-30T06:40:54.678Z,26.00
2023-11-30T06:43:56.744Z,26.80
2023-11-30T06:47:18.817Z,24.80
2023-11-30T06:50:23.409Z,26.30
2023-11-30T06:53:25.679Z,24.60
2023-11-30T06:56:30.295Z,23.60
2023-11-30T06:59:35.309Z,22.80
2023-11-30T07:02:37.295Z,22.00
2023-11-30T07:05:44.975Z,22.30
2023-11-30T07:08:47.283Z,25.60
2023-11-30T07:11:50.025Z,26.00
2023-11-30T07:14:52.080Z,25.20
2023-11-30T07:17:54.585Z,24.50
2023-11-30T07:20:59.207Z,24.70
2023-11-30T07:24:01.321Z,25.90
2023-11-30T07:27:03.494Z,26.20
2023-11-30T07:30:09.618Z,26.40
2023-11-30T07:33:12.260Z,26.40
2023-11-30T07:36:17.287Z,24.60
2023-11-30T07:39:22.165Z,25.80
2023-11-30T07:42:34.972Z,23.30
2023-11-30T07:45:54.041Z,23.70
2023-11-30T07:49:08.109Z,23.60
2023-11-30T07:52:09.920Z,23.60
2023-11-30T07:58:13.315Z,23.90
2023-11-30T08:01:20.460Z,22.70
2023-11-30T08:04:23.420Z,24.30
2023-11-30T08:07:45.874Z,25.00
2023-11-30T08:11:10.684Z,24.40
2023-11-30T08:14:41.739Z,23.20
2023-11-30T08:18:03.990Z,24.30
2023-11-30T08:21:06.245Z,23.90
2023-11-30T08:24:16.071Z,22.30
2023-11-30T08:27:21.921Z,20.80
2023-11-30T08:30:26.853Z,21.60
2023-11-30T08:33:33.444Z,21.90
2023-11-30T08:36:40.154Z,22.70
2023-11-30T08:39:45.551Z,23.60
2023-11-30T08:42:47.479Z,23.80
2023-11-30T08:45:49.517Z,20.50
2023-11-30T08:48:51.603Z,22.60
2023-11-30T08:51:54.110Z,22.40
2023-11-30T08:54:56.851Z,21.50
2023-11-30T08:57:58.951Z,21.30
2023-11-30T09:01:01.058Z,19.60
2023-11-30T09:04:03.189Z,21.00
2023-11-30T09:07:05.151Z,23.30
2023-11-30T09:10:07.352Z,20.00
2023-11-30T09:13:09.265Z,21.10
2023-11-30T09:16:11.179Z,20.90
2023-11-30T09:19:13.140Z,19.80
2023-11-30T09:22:14.897Z,20.10
2023-11-30T09:25:16.653Z,20.90
2023-11-30T09:28:18.586Z,21.60
2023-11-30T09:31:20.390Z,20.60
2023-11-30T09:34:22.178Z,20.90
2023-11-30T09:37:23.859Z,20.90
2023-11-30T09:40:25.832Z,21.90
2023-11-30T09:43:27.553Z,20.70
2023-11-30T09:46:29.419Z,20.00
2023-11-30T09:49:31.285Z,19.80
2023-11-30T09:52:33.202Z,21.20
2023-11-30T09:55:36.218Z,21.10
2023-11-30T09:58:37.926Z,21.10
2023-11-30T10:01:39.857Z,19.20
2023-11-30T10:04:41.610Z,21.10
2023-11-30T10:07:43.955Z,19.10
2023-11-30T10:10:46.813Z,19.90
2023-11-30T10:13:48.494Z,20.50
2023-11-30T10:16:50.448Z,19.80
2023-11-30T10:19:52.374Z,18.10
2023-11-30T10:22:54.168Z,19.70
2023-11-30T10:25:56.474Z,19.50
2023-11-30T10:28:58.983Z,19.80
2023-11-30T10:32:03.778Z,20.40
2023-11-30T10:35:06.649Z,20.60
2023-11-30T10:38:09.181Z,20.30
2023-11-30T10:41:20.063Z,20.00
2023-11-30T10:44:32.000Z,20.00
2023-11-30T10:47:37.381Z,21.00
2023-11-30T10:50:40.205Z,19.50
2023-11-30T10:53:48.257Z,20.40
2023-11-30T10:57:19.704Z,20.20
2023-11-30T11:00:21.773Z,19.60
2023-11-30T11:03:23.972Z,22.50
2023-11-30T11:06:26.779Z,19.20
2023-11-30T11:09:45.216Z,20.10
2023-11-30T11:12:50.021Z,21.20
2023-11-30T11:15:59.517Z,21.10
2023-11-30T11:19:05.909Z,22.00
2023-11-30T11:22:35.918Z,20.10
2023-11-30T11:25:40.940Z,20.20
2023-11-30T11:28:42.908Z,19.90
2023-11-30T11:31:48.173Z,20.70
2023-11-30T11:34:49.880Z,21.00
2023-11-30T11:38:12.116Z,20.90
2023-11-30T11:41:16.530Z,21.20
2023-11-30T11:44:24.819Z,20.70
2023-11-30T11:47:43.278Z,21.20
2023-11-30T11:50:57.784Z,22.60
2023-11-30T11:53:59.716Z,21.30
2023-11-30T11:57:13.230Z,23.20
2023-11-30T12:00:16.327Z,21.80
2023-11-30T12:03:30.326Z,23.10
2023-11-30T12:06:32.338Z,21.80
2023-11-30T12:09:37.087Z,22.10
2023-11-30T12:13:02.799Z,23.10
2023-11-30T12:16:30.734Z,23.30
2023-11-30T12:19:55.976Z,23.00
2023-11-30T12:23:01.683Z,22.20
2023-11-30T12:26:03.934Z,24.60
2023-11-30T12:29:16.968Z,23.40
2023-11-30T12:32:22.110Z,22.60
2023-11-30T12:35:44.080Z,22.80
2023-11-30T12:39:09.026Z,22.60
2023-11-30T12:42:14.046Z,22.00
2023-11-30T12:45:19.144Z,22.10
2023-11-30T12:48:21.351Z,22.90
2023-11-30T12:51:43.661Z,22.80
2023-11-30T12:55:06.325Z,25.10
2023-11-30T12:58:11.859Z,26.80
2023-11-30T13:01:19.916Z,25.30
2023-11-30T13:04:22.979Z,23.20
2023-11-30T13:07:27.318Z,26.00
2023-11-30T13:10:54.938Z,23.40
2023-11-30T13:13:59.906Z,22.80
2023-11-30T13:18:42.911Z,27.80
2023-11-30T13:21:50.481Z,25.60
2023-11-30T13:24:54.633Z,24.30
2023-11-30T13:27:56.844Z,26.00
2023-11-30T13:31:01.379Z,24.90
2023-11-30T13:34:12.370Z,24.60
2023-11-30T13:37:23.518Z,28.20
2023-11-30T13:40:45.800Z,28.80
2023-11-30T13:43:50.960Z,34.30
2023-11-30T13:47:33.920Z,28.60
2023-11-30T13:50:42.126Z,29.60
2023-11-30T13:54:11.855Z,30.30
2023-11-30T13:57:16.638Z,28.10
2023-11-30T14:00:44.905Z,28.70
2023-11-30T14:03:50.166Z,36.20
2023-11-30T14:07:25.503Z,33.20
2023-11-30T14:10:36.042Z,28.20
2023-11-30T14:13:38.201Z,40.30
2023-11-30T14:17:20.615Z,32.80
2023-11-30T14:20:24.912Z,40.30
2023-11-30T14:23:29.901Z,42.00
2023-11-30T14:26:46.478Z,46.50
2023-11-30T14:30:12.172Z,39.60
2023-11-30T14:33:34.835Z,30.50
2023-11-30T14:36:42.942Z,32.00
2023-11-30T14:40:05.780Z,30.70
2023-11-30T14:43:33.895Z,32.10
2023-11-30T14:46:58.918Z,38.30
2023-11-30T14:50:24.493Z,34.00
2023-11-30T14:53:45.244Z,34.50
2023-11-30T14:57:10.437Z,37.00
2023-11-30T15:00:56.639Z,39.10
2023-11-30T15:04:41.292Z,35.80
2023-11-30T15:07:49.198Z,32.80
2023-11-30T15:13:48.090Z,31.40
2023-11-30T15:16:50.170Z,32.30
2023-11-30T15:19:55.488Z,30.50
2023-11-30T15:22:57.477Z,69.90
2023-11-30T15:26:19.931Z,110.70
2023-11-30T15:29:28.321Z,66.40
2023-11-30T15:32:58.089Z,50.80
2023-11-30T15:36:13.857Z,46.40
2023-11-30T15:39:30.120Z,43.10
2023-11-30T15:42:52.436Z,51.30
2023-11-30T15:45:57.436Z,54.30
2023-11-30T15:49:12.040Z,148.90
2023-11-30T15:52:39.707Z,132.40
2023-11-30T15:55:45.166Z,97.90
2023-11-30T15:59:30.940Z,80.80
2023-11-30T16:02:48.896Z,82.20
2023-11-30T16:06:28.714Z,81.00
2023-11-30T16:09:30.987Z,70.20
2023-11-30T16:13:00.658Z,72.90
2023-11-30T16:16:31.702Z,126.50
2023-11-30T16:20:14.013Z,97.30
2023-11-30T16:23:39.367Z,96.20
2023-11-30T16:27:21.848Z,117.20
2023-11-30T16:30:54.218Z,118.60
2023-11-30T16:34:01.779Z,73.20
2023-11-30T16:37:44.091Z,68.10
2023-11-30T16:45:26.280Z,64.40
2023-11-30T16:48:56.060Z,60.20
2023-11-30T16:52:08.481Z,60.40
2023-11-30T16:55:36.660Z,64.10
2023-11-30T16:59:07.099Z,63.80
2023-11-30T17:02:35.020Z,73.70
2023-11-30T17:05:45.661Z,85.40
2023-11-30T17:09:40.775Z,102.40
2023-11-30T17:13:12.418Z,128.90
2023-11-30T17:16:54.852Z,127.60
2023-11-30T17:20:56.023Z,131.30
2023-11-30T17:24:41.619Z,99.20
2023-11-30T17:28:27.281Z,91.30
2023-11-30T17:32:01.265Z,72.80
2023-11-30T17:35:43.863Z,78.20
2023-11-30T17:39:29.833Z,70.60
2023-11-30T17:43:15.082Z,66.60
2023-11-30T17:46:57.424Z,65.40
2023-11-30T17:50:31.937Z,73.80
2023-11-30T17:53:57.033Z,75.90
2023-11-30T17:57:30.741Z,72.90
2023-11-30T18:01:33.128Z,68.70
2023-11-30T18:05:18.903Z,72.40
2023-11-30T18:09:01.286Z,71.70
2023-11-30T18:12:23.509Z,81.60
2023-11-30T18:15:55.587Z,82.90
2023-11-30T18:19:38.131Z,85.80
2023-11-30T18:23:40.481Z,65.60
2023-11-30T18:31:08.149Z,83.50
2023-11-30T18:35:18.998Z,88.20
2023-11-30T18:39:21.607Z,95.10
2023-11-30T18:42:47.191Z,87.10
2023-11-30T18:46:33.620Z,71.90
2023-11-30T18:50:36.054Z,72.30
2023-11-30T18:54:38.430Z,73.90
2023-11-30T19:01:38.622Z,79.60
2023-11-30T19:05:30.858Z,80.10
2023-11-30T19:09:14.263Z,80.10
2023-11-30T19:12:36.605Z,78.90
2023-11-30T19:16:01.594Z,101.10
2023-11-30T19:19:35.638Z,98.70
2023-11-30T19:23:07.897Z,85.10
2023-11-30T19:30:32.547Z,85.70
2023-11-30T19:33:57.745Z,84.90
2023-11-30T19:37:22.560Z,134.40
2023-11-30T19:40:52.030Z,110.90
2023-11-30T19:43:53.934Z,118.10
2023-11-30T19:47:24.260Z,131.30
2023-11-30T19:50:52.111Z,93.70
2023-11-30T19:54:14.796Z,88.20
2023-11-30T19:57:16.734Z,86.10
2023-11-30T20:04:19.757Z,88.30
2023-11-30T20:07:21.841Z,85.70
2023-11-30T20:10:50.623Z,92.60
2023-11-30T20:14:11.569Z,89.30
2023-11-30T20:17:23.516Z,94.10
2023-11-30T20:21:08.259Z,88.70
2023-11-30T20:24:50.640Z,98.50
2023-11-30T20:28:13.527Z,95.00
2023-11-30T20:31:47.585Z,98.80
2023-11-30T20:35:50.110Z,109.80
2023-11-30T20:39:32.738Z,116.80
2023-11-30T20:42:57.230Z,119.00
2023-11-30T20:46:45.197Z,106.80
2023-11-30T20:50:30.969Z,111.30
2023-11-30T20:53:53.412Z,110.00
2023-11-30T20:57:38.200Z,117.30
2023-11-30T21:00:52.457Z,109.30
2023-11-30T21:04:20.937Z,117.10
2023-11-30T21:08:06.413Z,121.70
2023-11-30T21:11:48.784Z,110.30
2023-11-30T21:15:51.463Z,110.00
2023-11-30T21:19:35.879Z,101.10
2023-11-30T21:23:28.256Z,93.60
2023-11-30T21:27:12.509Z,95.90
2023-11-30T21:30:54.957Z,93.20
2023-11-30T21:34:40.148Z,93.10
2023-11-30T21:38:09.560Z,91.40
2023-11-30T21:42:01.599Z,94.10
2023-11-30T21:45:27.268Z,93.30
2023-11-30T21:48:58.976Z,81.40
2023-11-30T21:52:44.534Z,83.60
2023-11-30T21:56:46.909Z,85.90
2023-11-30T22:03:31.390Z,92.70
2023-11-30T22:07:33.780Z,94.80
2023-11-30T22:11:09.230Z,97.80
2023-11-30T22:14:54.279Z,93.30
2023-11-30T22:18:45.930Z,87.40
2023-11-30T22:22:28.405Z,94.30
2023-11-30T22:25:58.799Z,91.60
2023-11-30T22:29:46.370Z,82.60
2023-11-30T22:33:31.877Z,98.30
2023-11-30T22:36:56.315Z,95.80
2023-11-30T22:40:10.757Z,99.00
2023-11-30T22:43:32.806Z,101.40
2023-11-30T22:46:55.957Z,104.30
2023-11-30T22:50:41.132Z,98.60
2023-11-30T22:54:08.844Z,105.90
2023-11-30T22:57:47.878Z,108.20
2023-11-30T23:01:10.271Z,103.00
2023-11-30T23:04:16.385Z,110.10
2023-11-30T23:08:03.716Z,111.70
2023-11-30T23:11:40.096Z,113.90
2023-11-30T23:15:05.148Z,116.30
2023-11-30T23:18:42.573Z,118.00
2023-11-30T23:22:35.649Z,122.90
2023-11-30T23:29:42.663Z,117.30
2023-11-30T23:33:45.168Z,117.20
2023-11-30T23:36:57.896Z,113.90
2023-11-30T23:40:26.136Z,109.50
2023-11-30T23:44:01.011Z,103.00
2023-11-30T23:51:13.469Z,104.90
2023-11-30T23:54:35.676Z,110.10
2023-11-30T23:58:07.431Z,109.20
